sensor_id;sensor_type;location;lat;lon;timestamp;P1;durP1;ratioP1;P2;durP2;ratioP2
17796;SDS011;55596;53.554;9.916;2023-06-14T00:02:22;5.00;;;2.23;;
17796;SDS011;55596;53.554;9.916;2023-06-14T00:04:49;6.07;;;2.37;;
17796;SDS011;55596;53.554;9.916;2023-06-14T00:07:18;6.83;;;2.30;;
17796;SDS011;55596;53.554;9.916;2023-06-14T00:09:45;5.90;;;2.57;;
17796;SDS011;55596;53.554;9.916;2023-06-14T00:12:12;4.47;;;2.23;;
17796;SDS011;55596;53.554;9.916;2023-06-14T00:14:39;5.33;;;2.50;;
17796;SDS011;55596;53.554;9.916;2023-06-14T00:17:08;5.23;;;2.43;;
17796;SDS011;55596;53.554;9.916;2023-06-14T00:19:35;8.80;;;2.83;;
17796;SDS011;55596;53.554;9.916;2023-06-14T00:22:03;5.13;;;2.50;;
17796;SDS011;55596;53.554;9.916;2023-06-14T00:24:31;4.80;;;2.20;;
17796;SDS011;55596;53.554;9.916;2023-06-14T00:27:00;7.20;;;2.33;;
17796;SDS011;55596;53.554;9.916;2023-06-14T00:29:27;6.13;;;1.93;;
17796;SDS011;55596;53.554;9.916;2023-06-14T00:32:04;4.70;;;2.27;;
17796;SDS011;55596;53.554;9.916;2023-06-14T00:34:38;4.40;;;2.33;;
17796;SDS011;55596;53.554;9.916;2023-06-14T00:37:05;6.97;;;2.63;;
17796;SDS011;55596;53.554;9.916;2023-06-14T00:39:33;6.37;;;2.37;;
17796;SDS011;55596;53.554;9.916;2023-06-14T00:42:01;6.13;;;2.57;;
17796;SDS011;55596;53.554;9.916;2023-06-14T00:44:28;3.87;;;2.43;;
17796;SDS011;55596;53.554;9.916;2023-06-14T00:46:56;6.63;;;2.60;;
17796;SDS011;55596;53.554;9.916;2023-06-14T00:49:24;8.07;;;2.50;;
17796;SDS011;55596;53.554;9.916;2023-06-14T00:51:53;5.77;;;2.53;;
17796;SDS011;55596;53.554;9.916;2023-06-14T00:54:20;4.93;;;2.50;;
17796;SDS011;55596;53.554;9.916;2023-06-14T00:56:48;2.63;;;2.03;;
17796;SDS011;55596;53.554;9.916;2023-06-14T00:59:15;7.10;;;2.70;;
17796;SDS011;55596;53.554;9.916;2023-06-14T01:01:42;4.13;;;2.50;;
17796;SDS011;55596;53.554;9.916;2023-06-14T01:04:10;5.27;;;2.47;;
17796;SDS011;55596;53.554;9.916;2023-06-14T01:06:39;6.13;;;2.70;;
17796;SDS011;55596;53.554;9.916;2023-06-14T01:09:12;5.57;;;2.77;;
17796;SDS011;55596;53.554;9.916;2023-06-14T01:11:44;4.03;;;2.23;;
17796;SDS011;55596;53.554;9.916;2023-06-14T01:14:14;5.90;;;2.80;;
17796;SDS011;55596;53.554;9.916;2023-06-14T01:16:45;7.27;;;2.60;;
17796;SDS011;55596;53.554;9.916;2023-06-14T01:19:14;4.33;;;2.60;;
17796;SDS011;55596;53.554;9.916;2023-06-14T01:21:42;2.87;;;2.50;;
17796;SDS011;55596;53.554;9.916;2023-06-14T01:24:11;5.17;;;2.90;;
17796;SDS011;55596;53.554;9.916;2023-06-14T01:26:38;4.10;;;2.27;;
17796;SDS011;55596;53.554;9.916;2023-06-14T01:29:10;5.17;;;2.33;;
17796;SDS011;55596;53.554;9.916;2023-06-14T01:31:41;6.27;;;2.90;;
17796;SDS011;55596;53.554;9.916;2023-06-14T01:34:12;5.30;;;2.87;;
17796;SDS011;55596;53.554;9.916;2023-06-14T01:36:41;3.63;;;2.33;;
17796;SDS011;55596;53.554;9.916;2023-06-14T01:39:08;3.57;;;2.27;;
17796;SDS011;55596;53.554;9.916;2023-06-14T01:41:38;4.23;;;2.60;;
17796;SDS011;55596;53.554;9.916;2023-06-14T01:44:05;6.23;;;2.83;;
17796;SDS011;55596;53.554;9.916;2023-06-14T01:46:33;6.47;;;2.83;;
17796;SDS011;55596;53.554;9.916;2023-06-14T01:49:00;6.47;;;2.83;;
17796;SDS011;55596;53.554;9.916;2023-06-14T01:51:28;3.63;;;2.70;;
17796;SDS011;55596;53.554;9.916;2023-06-14T01:53:55;8.37;;;3.33;;
17796;SDS011;55596;53.554;9.916;2023-06-14T01:56:23;5.80;;;2.60;;
17796;SDS011;55596;53.554;9.916;2023-06-14T01:58:52;5.03;;;2.90;;
17796;SDS011;55596;53.554;9.916;2023-06-14T02:01:21;9.87;;;2.73;;
17796;SDS011;55596;53.554;9.916;2023-06-14T02:03:48;5.13;;;2.70;;
17796;SDS011;55596;53.554;9.916;2023-06-14T02:06:16;5.20;;;2.53;;
17796;SDS011;55596;53.554;9.916;2023-06-14T02:08:44;5.47;;;2.70;;
17796;SDS011;55596;53.554;9.916;2023-06-14T02:11:11;3.67;;;2.50;;
17796;SDS011;55596;53.554;9.916;2023-06-14T02:13:38;6.27;;;2.70;;
17796;SDS011;55596;53.554;9.916;2023-06-14T02:16:07;5.03;;;2.33;;
17796;SDS011;55596;53.554;9.916;2023-06-14T02:18:34;6.33;;;2.70;;
17796;SDS011;55596;53.554;9.916;2023-06-14T02:21:01;4.57;;;2.63;;
17796;SDS011;55596;53.554;9.916;2023-06-14T02:23:29;4.93;;;2.60;;
17796;SDS011;55596;53.554;9.916;2023-06-14T02:25:57;5.83;;;2.90;;
17796;SDS011;55596;53.554;9.916;2023-06-14T02:28:24;4.60;;;2.40;;
17796;SDS011;55596;53.554;9.916;2023-06-14T02:30:51;4.87;;;3.00;;
17796;SDS011;55596;53.554;9.916;2023-06-14T02:33:20;6.30;;;3.20;;
17796;SDS011;55596;53.554;9.916;2023-06-14T02:35:47;5.70;;;3.00;;
17796;SDS011;55596;53.554;9.916;2023-06-14T02:38:15;5.77;;;2.80;;
17796;SDS011;55596;53.554;9.916;2023-06-14T02:40:42;3.33;;;2.80;;
17796;SDS011;55596;53.554;9.916;2023-06-14T02:43:09;5.90;;;2.97;;
17796;SDS011;55596;53.554;9.916;2023-06-14T02:45:36;7.73;;;3.03;;
17796;SDS011;55596;53.554;9.916;2023-06-14T02:48:04;10.53;;;2.97;;
17796;SDS011;55596;53.554;9.916;2023-06-14T02:50:32;6.50;;;2.80;;
17796;SDS011;55596;53.554;9.916;2023-06-14T02:52:59;4.47;;;2.97;;
17796;SDS011;55596;53.554;9.916;2023-06-14T02:55:27;7.20;;;3.03;;
17796;SDS011;55596;53.554;9.916;2023-06-14T02:57:55;6.40;;;2.83;;
17796;SDS011;55596;53.554;9.916;2023-06-14T03:00:22;7.03;;;3.40;;
17796;SDS011;55596;53.554;9.916;2023-06-14T03:02:49;7.20;;;2.80;;
17796;SDS011;55596;53.554;9.916;2023-06-14T03:05:19;5.83;;;2.93;;
17796;SDS011;55596;53.554;9.916;2023-06-14T03:07:48;8.90;;;3.77;;
17796;SDS011;55596;53.554;9.916;2023-06-14T03:10:15;6.93;;;3.27;;
17796;SDS011;55596;53.554;9.916;2023-06-14T03:12:43;5.97;;;2.87;;
17796;SDS011;55596;53.554;9.916;2023-06-14T03:15:10;5.47;;;2.50;;
17796;SDS011;55596;53.554;9.916;2023-06-14T03:17:38;7.80;;;2.93;;
17796;SDS011;55596;53.554;9.916;2023-06-14T03:20:10;6.30;;;3.23;;
17796;SDS011;55596;53.554;9.916;2023-06-14T03:22:37;7.97;;;3.50;;
17796;SDS011;55596;53.554;9.916;2023-06-14T03:25:08;8.30;;;3.07;;
17796;SDS011;55596;53.554;9.916;2023-06-14T03:27:35;5.23;;;3.20;;
17796;SDS011;55596;53.554;9.916;2023-06-14T03:30:03;6.47;;;3.10;;
17796;SDS011;55596;53.554;9.916;2023-06-14T03:32:30;6.23;;;3.10;;
17796;SDS011;55596;53.554;9.916;2023-06-14T03:34:58;10.20;;;3.47;;
17796;SDS011;55596;53.554;9.916;2023-06-14T03:37:25;7.00;;;3.20;;
17796;SDS011;55596;53.554;9.916;2023-06-14T03:39:52;6.23;;;2.90;;
17796;SDS011;55596;53.554;9.916;2023-06-14T03:42:21;4.80;;;3.00;;
17796;SDS011;55596;53.554;9.916;2023-06-14T03:44:48;6.43;;;3.33;;
17796;SDS011;55596;53.554;9.916;2023-06-14T03:47:16;8.67;;;3.33;;
17796;SDS011;55596;53.554;9.916;2023-06-14T03:49:43;7.67;;;3.20;;
17796;SDS011;55596;53.554;9.916;2023-06-14T03:52:10;9.07;;;3.50;;
17796;SDS011;55596;53.554;9.916;2023-06-14T03:54:39;5.67;;;2.87;;
17796;SDS011;55596;53.554;9.916;2023-06-14T03:57:09;7.87;;;3.53;;
17796;SDS011;55596;53.554;9.916;2023-06-14T03:59:37;11.10;;;3.33;;
17796;SDS011;55596;53.554;9.916;2023-06-14T04:02:05;8.57;;;3.17;;
17796;SDS011;55596;53.554;9.916;2023-06-14T04:04:32;7.07;;;3.50;;
17796;SDS011;55596;53.554;9.916;2023-06-14T04:07:00;6.43;;;3.20;;
17796;SDS011;55596;53.554;9.916;2023-06-14T04:09:28;6.70;;;2.73;;
17796;SDS011;55596;53.554;9.916;2023-06-14T04:11:55;7.70;;;2.90;;
17796;SDS011;55596;53.554;9.916;2023-06-14T04:14:22;9.47;;;3.30;;
17796;SDS011;55596;53.554;9.916;2023-06-14T04:16:51;8.60;;;3.23;;
17796;SDS011;55596;53.554;9.916;2023-06-14T04:19:18;8.40;;;3.37;;
17796;SDS011;55596;53.554;9.916;2023-06-14T04:21:45;4.73;;;3.20;;
17796;SDS011;55596;53.554;9.916;2023-06-14T04:24:12;3.63;;;2.90;;
17796;SDS011;55596;53.554;9.916;2023-06-14T04:26:40;7.27;;;3.40;;
17796;SDS011;55596;53.554;9.916;2023-06-14T04:29:10;7.87;;;3.17;;
17796;SDS011;55596;53.554;9.916;2023-06-14T04:31:39;5.63;;;3.13;;
17796;SDS011;55596;53.554;9.916;2023-06-14T04:34:08;6.17;;;3.30;;
17796;SDS011;55596;53.554;9.916;2023-06-14T04:36:41;9.33;;;3.07;;
17796;SDS011;55596;53.554;9.916;2023-06-14T04:39:14;5.47;;;3.10;;
17796;SDS011;55596;53.554;9.916;2023-06-14T04:41:42;8.17;;;3.07;;
17796;SDS011;55596;53.554;9.916;2023-06-14T04:44:10;15.70;;;3.93;;
17796;SDS011;55596;53.554;9.916;2023-06-14T04:46:37;18.00;;;4.00;;
17796;SDS011;55596;53.554;9.916;2023-06-14T04:49:12;13.50;;;3.50;;
17796;SDS011;55596;53.554;9.916;2023-06-14T04:51:40;5.80;;;3.40;;
17796;SDS011;55596;53.554;9.916;2023-06-14T04:54:07;9.60;;;3.47;;
17796;SDS011;55596;53.554;9.916;2023-06-14T04:56:40;7.60;;;3.20;;
17796;SDS011;55596;53.554;9.916;2023-06-14T04:59:08;7.77;;;3.67;;
17796;SDS011;55596;53.554;9.916;2023-06-14T05:01:36;6.60;;;3.00;;
17796;SDS011;55596;53.554;9.916;2023-06-14T05:04:04;6.20;;;2.93;;
17796;SDS011;55596;53.554;9.916;2023-06-14T05:06:33;9.17;;;3.63;;
17796;SDS011;55596;53.554;9.916;2023-06-14T05:09:01;7.87;;;2.90;;
17796;SDS011;55596;53.554;9.916;2023-06-14T05:11:28;11.37;;;3.30;;
17796;SDS011;55596;53.554;9.916;2023-06-14T05:13:56;9.93;;;3.20;;
17796;SDS011;55596;53.554;9.916;2023-06-14T05:16:23;8.03;;;3.30;;
17796;SDS011;55596;53.554;9.916;2023-06-14T05:18:52;6.73;;;3.57;;
17796;SDS011;55596;53.554;9.916;2023-06-14T05:21:20;12.43;;;4.17;;
17796;SDS011;55596;53.554;9.916;2023-06-14T05:23:49;7.17;;;3.63;;
17796;SDS011;55596;53.554;9.916;2023-06-14T05:26:17;7.87;;;3.37;;
17796;SDS011;55596;53.554;9.916;2023-06-14T05:28:44;8.83;;;3.57;;
17796;SDS011;55596;53.554;9.916;2023-06-14T05:31:15;8.53;;;2.83;;
17796;SDS011;55596;53.554;9.916;2023-06-14T05:33:42;6.80;;;3.13;;
17796;SDS011;55596;53.554;9.916;2023-06-14T05:36:09;5.93;;;3.40;;
17796;SDS011;55596;53.554;9.916;2023-06-14T05:38:36;7.00;;;3.03;;
17796;SDS011;55596;53.554;9.916;2023-06-14T05:41:05;9.63;;;3.00;;
17796;SDS011;55596;53.554;9.916;2023-06-14T05:43:32;5.47;;;3.43;;
17796;SDS011;55596;53.554;9.916;2023-06-14T05:45:59;5.37;;;3.13;;
17796;SDS011;55596;53.554;9.916;2023-06-14T05:48:28;8.13;;;3.03;;
17796;SDS011;55596;53.554;9.916;2023-06-14T05:51:03;5.70;;;2.77;;
17796;SDS011;55596;53.554;9.916;2023-06-14T05:53:34;7.73;;;3.00;;
17796;SDS011;55596;53.554;9.916;2023-06-14T05:56:01;7.03;;;3.03;;
17796;SDS011;55596;53.554;9.916;2023-06-14T05:58:30;5.83;;;2.73;;
17796;SDS011;55596;53.554;9.916;2023-06-14T06:01:00;5.87;;;2.97;;
17796;SDS011;55596;53.554;9.916;2023-06-14T06:03:28;8.97;;;3.07;;
17796;SDS011;55596;53.554;9.916;2023-06-14T06:05:55;8.00;;;3.00;;
17796;SDS011;55596;53.554;9.916;2023-06-14T06:08:22;8.77;;;3.00;;
17796;SDS011;55596;53.554;9.916;2023-06-14T06:10:50;4.73;;;2.83;;
17796;SDS011;55596;53.554;9.916;2023-06-14T06:13:18;7.73;;;2.93;;
17796;SDS011;55596;53.554;9.916;2023-06-14T06:15:47;14.93;;;5.87;;
17796;SDS011;55596;53.554;9.916;2023-06-14T06:18:14;27.40;;;7.63;;
17796;SDS011;55596;53.554;9.916;2023-06-14T06:20:42;7.90;;;3.13;;
17796;SDS011;55596;53.554;9.916;2023-06-14T06:23:10;7.03;;;2.83;;
17796;SDS011;55596;53.554;9.916;2023-06-14T06:25:37;8.80;;;3.40;;
17796;SDS011;55596;53.554;9.916;2023-06-14T06:28:05;8.93;;;2.80;;
17796;SDS011;55596;53.554;9.916;2023-06-14T06:30:32;12.77;;;4.13;;
17796;SDS011;55596;53.554;9.916;2023-06-14T06:33:01;11.80;;;3.10;;
17796;SDS011;55596;53.554;9.916;2023-06-14T06:35:28;8.13;;;3.43;;
17796;SDS011;55596;53.554;9.916;2023-06-14T06:37:58;6.47;;;2.40;;
17796;SDS011;55596;53.554;9.916;2023-06-14T06:40:25;14.77;;;3.67;;
17796;SDS011;55596;53.554;9.916;2023-06-14T06:42:53;6.30;;;2.83;;
17796;SDS011;55596;53.554;9.916;2023-06-14T06:45:20;7.80;;;3.10;;
17796;SDS011;55596;53.554;9.916;2023-06-14T06:47:48;8.57;;;3.00;;
17796;SDS011;55596;53.554;9.916;2023-06-14T06:50:18;10.73;;;2.97;;
17796;SDS011;55596;53.554;9.916;2023-06-14T06:52:48;15.17;;;2.97;;
17796;SDS011;55596;53.554;9.916;2023-06-14T06:55:16;9.33;;;2.57;;
17796;SDS011;55596;53.554;9.916;2023-06-14T06:57:43;6.87;;;2.57;;
17796;SDS011;55596;53.554;9.916;2023-06-14T07:00:10;8.80;;;2.90;;
17796;SDS011;55596;53.554;9.916;2023-06-14T07:02:40;8.73;;;2.70;;
17796;SDS011;55596;53.554;9.916;2023-06-14T07:05:08;8.80;;;2.40;;
17796;SDS011;55596;53.554;9.916;2023-06-14T07:07:37;6.60;;;2.67;;
17796;SDS011;55596;53.554;9.916;2023-06-14T07:10:05;5.53;;;2.30;;
17796;SDS011;55596;53.554;9.916;2023-06-14T07:12:33;4.47;;;2.30;;
17796;SDS011;55596;53.554;9.916;2023-06-14T07:15:04;7.03;;;2.77;;
17796;SDS011;55596;53.554;9.916;2023-06-14T07:17:32;5.67;;;2.50;;
17796;SDS011;55596;53.554;9.916;2023-06-14T07:20:00;5.13;;;2.00;;
17796;SDS011;55596;53.554;9.916;2023-06-14T07:22:38;4.90;;;2.30;;
17796;SDS011;55596;53.554;9.916;2023-06-14T07:25:07;5.27;;;2.30;;
17796;SDS011;55596;53.554;9.916;2023-06-14T07:27:35;5.97;;;2.10;;
17796;SDS011;55596;53.554;9.916;2023-06-14T07:30:16;5.07;;;2.30;;
17796;SDS011;55596;53.554;9.916;2023-06-14T07:32:44;5.00;;;2.43;;
17796;SDS011;55596;53.554;9.916;2023-06-14T07:35:15;2.70;;;1.80;;
17796;SDS011;55596;53.554;9.916;2023-06-14T07:37:44;5.00;;;2.20;;
17796;SDS011;55596;53.554;9.916;2023-06-14T07:40:16;3.23;;;2.07;;
17796;SDS011;55596;53.554;9.916;2023-06-14T07:42:43;3.27;;;1.90;;
17796;SDS011;55596;53.554;9.916;2023-06-14T07:45:14;3.23;;;1.90;;
17796;SDS011;55596;53.554;9.916;2023-06-14T07:47:42;6.30;;;2.00;;
17796;SDS011;55596;53.554;9.916;2023-06-14T07:50:09;4.43;;;2.00;;
17796;SDS011;55596;53.554;9.916;2023-06-14T07:52:36;2.90;;;1.80;;
17796;SDS011;55596;53.554;9.916;2023-06-14T07:55:07;2.80;;;1.77;;
17796;SDS011;55596;53.554;9.916;2023-06-14T07:57:35;5.20;;;2.27;;
17796;SDS011;55596;53.554;9.916;2023-06-14T08:00:04;5.57;;;2.03;;
17796;SDS011;55596;53.554;9.916;2023-06-14T08:02:32;4.50;;;2.10;;
17796;SDS011;55596;53.554;9.916;2023-06-14T08:04:59;6.63;;;2.10;;
17796;SDS011;55596;53.554;9.916;2023-06-14T08:07:27;4.73;;;1.93;;
17796;SDS011;55596;53.554;9.916;2023-06-14T08:09:54;3.73;;;1.87;;
17796;SDS011;55596;53.554;9.916;2023-06-14T08:12:23;5.23;;;2.20;;
17796;SDS011;55596;53.554;9.916;2023-06-14T08:14:50;9.03;;;2.10;;
17796;SDS011;55596;53.554;9.916;2023-06-14T08:17:18;6.30;;;1.90;;
17796;SDS011;55596;53.554;9.916;2023-06-14T08:19:45;7.97;;;2.10;;
17796;SDS011;55596;53.554;9.916;2023-06-14T08:22:13;7.68;;;2.20;;
17796;SDS011;55596;53.554;9.916;2023-06-14T08:24:41;8.07;;;2.07;;
17796;SDS011;55596;53.554;9.916;2023-06-14T08:27:11;4.28;;;2.13;;
17796;SDS011;55596;53.554;9.916;2023-06-14T08:29:40;6.50;;;1.83;;
17796;SDS011;55596;53.554;9.916;2023-06-14T08:32:07;5.00;;;2.00;;
17796;SDS011;55596;53.554;9.916;2023-06-14T08:34:35;4.73;;;2.27;;
17796;SDS011;55596;53.554;9.916;2023-06-14T08:37:03;4.82;;;2.45;;
17796;SDS011;55596;53.554;9.916;2023-06-14T08:39:30;7.70;;;2.07;;
17796;SDS011;55596;53.554;9.916;2023-06-14T08:41:58;9.73;;;2.67;;
17796;SDS011;55596;53.554;9.916;2023-06-14T08:44:31;5.30;;;2.40;;
17796;SDS011;55596;53.554;9.916;2023-06-14T08:46:59;4.53;;;2.10;;
17796;SDS011;55596;53.554;9.916;2023-06-14T08:49:28;4.68;;;2.58;;
17796;SDS011;55596;53.554;9.916;2023-06-14T08:51:57;6.40;;;2.17;;
17796;SDS011;55596;53.554;9.916;2023-06-14T08:54:25;8.23;;;2.50;;
17796;SDS011;55596;53.554;9.916;2023-06-14T08:56:55;2.72;;;2.00;;
17796;SDS011;55596;53.554;9.916;2023-06-14T08:59:24;4.97;;;2.28;;
17796;SDS011;55596;53.554;9.916;2023-06-14T09:01:52;5.18;;;2.08;;
17796;SDS011;55596;53.554;9.916;2023-06-14T09:04:22;5.87;;;2.60;;
17796;SDS011;55596;53.554;9.916;2023-06-14T09:06:54;5.38;;;2.58;;
17796;SDS011;55596;53.554;9.916;2023-06-14T09:09:22;9.68;;;2.70;;
17796;SDS011;55596;53.554;9.916;2023-06-14T09:11:50;8.07;;;2.22;;
17796;SDS011;55596;53.554;9.916;2023-06-14T09:14:23;14.25;;;2.47;;
17796;SDS011;55596;53.554;9.916;2023-06-14T09:17:04;7.63;;;2.30;;
17796;SDS011;55596;53.554;9.916;2023-06-14T09:22:26;6.25;;;1.88;;
17796;SDS011;55596;53.554;9.916;2023-06-14T09:25:01;7.68;;;2.72;;
17796;SDS011;55596;53.554;9.916;2023-06-14T09:27:30;9.32;;;2.10;;
17796;SDS011;55596;53.554;9.916;2023-06-14T09:29:57;8.80;;;2.20;;
17796;SDS011;55596;53.554;9.916;2023-06-14T09:32:26;4.55;;;2.08;;
17796;SDS011;55596;53.554;9.916;2023-06-14T09:34:53;5.22;;;2.10;;
17796;SDS011;55596;53.554;9.916;2023-06-14T09:37:29;5.63;;;2.10;;
17796;SDS011;55596;53.554;9.916;2023-06-14T09:39:57;4.00;;;1.90;;
17796;SDS011;55596;53.554;9.916;2023-06-14T09:42:25;7.00;;;2.03;;
17796;SDS011;55596;53.554;9.916;2023-06-14T09:44:55;5.32;;;2.10;;
17796;SDS011;55596;53.554;9.916;2023-06-14T09:47:22;5.88;;;2.10;;
17796;SDS011;55596;53.554;9.916;2023-06-14T09:49:50;10.32;;;2.42;;
17796;SDS011;55596;53.554;9.916;2023-06-14T09:52:20;5.57;;;2.08;;
17796;SDS011;55596;53.554;9.916;2023-06-14T09:54:49;4.45;;;2.30;;
17796;SDS011;55596;53.554;9.916;2023-06-14T09:57:20;5.03;;;1.95;;
17796;SDS011;55596;53.554;9.916;2023-06-14T09:59:48;7.15;;;2.35;;
17796;SDS011;55596;53.554;9.916;2023-06-14T10:02:18;7.90;;;2.13;;
17796;SDS011;55596;53.554;9.916;2023-06-14T10:04:51;6.40;;;2.35;;
17796;SDS011;55596;53.554;9.916;2023-06-14T10:07:20;6.03;;;2.13;;
17796;SDS011;55596;53.554;9.916;2023-06-14T10:09:49;6.47;;;2.55;;
17796;SDS011;55596;53.554;9.916;2023-06-14T10:12:17;5.65;;;2.20;;
17796;SDS011;55596;53.554;9.916;2023-06-14T10:14:48;7.28;;;2.55;;
17796;SDS011;55596;53.554;9.916;2023-06-14T10:17:19;5.28;;;2.17;;
17796;SDS011;55596;53.554;9.916;2023-06-14T10:19:48;4.15;;;2.10;;
17796;SDS011;55596;53.554;9.916;2023-06-14T10:22:19;6.00;;;2.45;;
17796;SDS011;55596;53.554;9.916;2023-06-14T10:24:51;10.70;;;2.53;;
17796;SDS011;55596;53.554;9.916;2023-06-14T10:27:18;8.23;;;2.35;;
17796;SDS011;55596;53.554;9.916;2023-06-14T10:32:33;7.32;;;2.33;;
17796;SDS011;55596;53.554;9.916;2023-06-14T10:35:01;5.43;;;1.80;;
17796;SDS011;55596;53.554;9.916;2023-06-14T10:37:33;8.00;;;2.53;;
17796;SDS011;55596;53.554;9.916;2023-06-14T10:40:05;9.95;;;2.60;;
17796;SDS011;55596;53.554;9.916;2023-06-14T10:42:34;6.78;;;2.35;;
17796;SDS011;55596;53.554;9.916;2023-06-14T10:45:03;7.45;;;2.30;;
17796;SDS011;55596;53.554;9.916;2023-06-14T10:47:32;4.93;;;1.90;;
17796;SDS011;55596;53.554;9.916;2023-06-14T10:50:03;6.95;;;2.25;;
17796;SDS011;55596;53.554;9.916;2023-06-14T10:52:32;6.13;;;2.28;;
17796;SDS011;55596;53.554;9.916;2023-06-14T10:55:01;4.22;;;2.05;;
17796;SDS011;55596;53.554;9.916;2023-06-14T10:57:30;5.25;;;2.25;;
17796;SDS011;55596;53.554;9.916;2023-06-14T10:59:58;6.00;;;2.30;;
17796;SDS011;55596;53.554;9.916;2023-06-14T11:02:48;8.63;;;2.65;;
17796;SDS011;55596;53.554;9.916;2023-06-14T11:05:19;7.03;;;2.25;;
17796;SDS011;55596;53.554;9.916;2023-06-14T11:07:55;3.97;;;2.10;;
17796;SDS011;55596;53.554;9.916;2023-06-14T11:10:26;5.30;;;2.30;;
17796;SDS011;55596;53.554;9.916;2023-06-14T11:12:57;8.85;;;2.70;;
17796;SDS011;55596;53.554;9.916;2023-06-14T11:15:27;3.10;;;2.38;;
17796;SDS011;55596;53.554;9.916;2023-06-14T11:17:55;4.53;;;2.30;;
17796;SDS011;55596;53.554;9.916;2023-06-14T11:20:24;4.05;;;2.10;;
17796;SDS011;55596;53.554;9.916;2023-06-14T11:22:52;5.93;;;1.92;;
17796;SDS011;55596;53.554;9.916;2023-06-14T11:25:20;8.90;;;2.60;;
17796;SDS011;55596;53.554;9.916;2023-06-14T11:27:49;10.32;;;2.45;;
17796;SDS011;55596;53.554;9.916;2023-06-14T11:30:18;6.13;;;2.63;;
17796;SDS011;55596;53.554;9.916;2023-06-14T11:32:46;3.00;;;2.00;;
17796;SDS011;55596;53.554;9.916;2023-06-14T11:35:15;3.47;;;2.15;;
17796;SDS011;55596;53.554;9.916;2023-06-14T11:37:43;7.82;;;2.20;;
17796;SDS011;55596;53.554;9.916;2023-06-14T11:40:11;5.82;;;2.42;;
17796;SDS011;55596;53.554;9.916;2023-06-14T11:42:40;6.40;;;2.30;;
17796;SDS011;55596;53.554;9.916;2023-06-14T11:45:08;9.52;;;2.47;;
17796;SDS011;55596;53.554;9.916;2023-06-14T11:47:37;5.00;;;2.20;;
17796;SDS011;55596;53.554;9.916;2023-06-14T11:50:06;11.70;;;2.40;;
17796;SDS011;55596;53.554;9.916;2023-06-14T11:52:39;10.20;;;3.17;;
17796;SDS011;55596;53.554;9.916;2023-06-14T11:55:07;6.63;;;1.80;;
17796;SDS011;55596;53.554;9.916;2023-06-14T11:57:37;3.85;;;2.00;;
17796;SDS011;55596;53.554;9.916;2023-06-14T12:00:05;5.00;;;2.28;;
17796;SDS011;55596;53.554;9.916;2023-06-14T12:02:38;8.48;;;2.28;;
17796;SDS011;55596;53.554;9.916;2023-06-14T12:05:07;5.47;;;2.08;;
17796;SDS011;55596;53.554;9.916;2023-06-14T12:07:36;7.30;;;2.33;;
17796;SDS011;55596;53.554;9.916;2023-06-14T12:10:18;6.63;;;2.30;;
17796;SDS011;55596;53.554;9.916;2023-06-14T12:12:49;5.22;;;2.28;;
17796;SDS011;55596;53.554;9.916;2023-06-14T12:15:19;4.57;;;2.13;;
17796;SDS011;55596;53.554;9.916;2023-06-14T12:17:52;4.03;;;2.17;;
17796;SDS011;55596;53.554;9.916;2023-06-14T12:20:22;6.43;;;2.47;;
17796;SDS011;55596;53.554;9.916;2023-06-14T12:22:50;6.78;;;2.05;;
17796;SDS011;55596;53.554;9.916;2023-06-14T12:25:26;6.13;;;2.25;;
17796;SDS011;55596;53.554;9.916;2023-06-14T12:27:56;8.63;;;2.25;;
17796;SDS011;55596;53.554;9.916;2023-06-14T12:30:23;6.80;;;2.45;;
17796;SDS011;55596;53.554;9.916;2023-06-14T12:32:57;5.25;;;2.40;;
17796;SDS011;55596;53.554;9.916;2023-06-14T12:35:38;10.23;;;2.90;;
17796;SDS011;55596;53.554;9.916;2023-06-14T12:38:05;8.65;;;2.30;;
17796;SDS011;55596;53.554;9.916;2023-06-14T12:40:33;6.00;;;2.30;;
17796;SDS011;55596;53.554;9.916;2023-06-14T12:43:01;9.57;;;2.05;;
17796;SDS011;55596;53.554;9.916;2023-06-14T12:45:29;4.43;;;2.05;;
17796;SDS011;55596;53.554;9.916;2023-06-14T12:48:00;5.47;;;1.95;;
17796;SDS011;55596;53.554;9.916;2023-06-14T12:50:28;4.85;;;2.10;;
17796;SDS011;55596;53.554;9.916;2023-06-14T12:52:55;10.23;;;2.50;;
17796;SDS011;55596;53.554;9.916;2023-06-14T12:55:23;5.32;;;2.38;;
17796;SDS011;55596;53.554;9.916;2023-06-14T12:57:50;4.28;;;2.00;;
17796;SDS011;55596;53.554;9.916;2023-06-14T13:00:18;5.10;;;2.35;;
17796;SDS011;55596;53.554;9.916;2023-06-14T13:02:47;4.93;;;2.00;;
17796;SDS011;55596;53.554;9.916;2023-06-14T13:05:17;7.90;;;2.13;;
17796;SDS011;55596;53.554;9.916;2023-06-14T13:07:44;7.05;;;2.38;;
17796;SDS011;55596;53.554;9.916;2023-06-14T13:10:11;9.13;;;2.20;;
17796;SDS011;55596;53.554;9.916;2023-06-14T13:12:39;5.00;;;2.47;;
17796;SDS011;55596;53.554;9.916;2023-06-14T13:15:07;4.47;;;2.13;;
17796;SDS011;55596;53.554;9.916;2023-06-14T13:17:34;8.95;;;1.95;;
17796;SDS011;55596;53.554;9.916;2023-06-14T13:20:03;12.60;;;2.50;;
17796;SDS011;55596;53.554;9.916;2023-06-14T13:22:33;3.25;;;2.00;;
17796;SDS011;55596;53.554;9.916;2023-06-14T13:25:00;6.85;;;2.08;;
17796;SDS011;55596;53.554;9.916;2023-06-14T13:27:28;5.78;;;2.40;;
17796;SDS011;55596;53.554;9.916;2023-06-14T13:29:55;6.95;;;2.40;;
17796;SDS011;55596;53.554;9.916;2023-06-14T13:32:24;4.72;;;2.30;;
17796;SDS011;55596;53.554;9.916;2023-06-14T13:34:51;7.63;;;2.17;;
17796;SDS011;55596;53.554;9.916;2023-06-14T13:37:19;4.57;;;1.95;;
17796;SDS011;55596;53.554;9.916;2023-06-14T13:39:48;6.45;;;2.35;;
17796;SDS011;55596;53.554;9.916;2023-06-14T13:42:15;6.57;;;2.25;;
17796;SDS011;55596;53.554;9.916;2023-06-14T13:44:43;5.28;;;2.17;;
17796;SDS011;55596;53.554;9.916;2023-06-14T13:47:10;4.32;;;2.05;;
17796;SDS011;55596;53.554;9.916;2023-06-14T13:49:39;4.95;;;2.30;;
17796;SDS011;55596;53.554;9.916;2023-06-14T13:52:06;10.10;;;2.10;;
17796;SDS011;55596;53.554;9.916;2023-06-14T13:54:33;5.28;;;2.20;;
17796;SDS011;55596;53.554;9.916;2023-06-14T13:57:02;5.65;;;1.88;;
17796;SDS011;55596;53.554;9.916;2023-06-14T13:59:29;6.60;;;2.40;;
17796;SDS011;55596;53.554;9.916;2023-06-14T14:01:57;9.65;;;2.10;;
17796;SDS011;55596;53.554;9.916;2023-06-14T14:04:24;4.47;;;1.80;;
17796;SDS011;55596;53.554;9.916;2023-06-14T14:06:52;5.97;;;2.13;;
17796;SDS011;55596;53.554;9.916;2023-06-14T14:09:19;7.68;;;2.00;;
17796;SDS011;55596;53.554;9.916;2023-06-14T14:11:46;4.97;;;2.15;;
17796;SDS011;55596;53.554;9.916;2023-06-14T14:14:15;7.03;;;2.30;;
17796;SDS011;55596;53.554;9.916;2023-06-14T14:16:42;3.30;;;1.98;;
17796;SDS011;55596;53.554;9.916;2023-06-14T14:19:10;6.25;;;2.40;;
17796;SDS011;55596;53.554;9.916;2023-06-14T14:21:38;10.23;;;2.38;;
17796;SDS011;55596;53.554;9.916;2023-06-14T14:24:05;6.22;;;1.95;;
17796;SDS011;55596;53.554;9.916;2023-06-14T14:26:33;3.63;;;2.08;;
17796;SDS011;55596;53.554;9.916;2023-06-14T14:29:00;5.80;;;1.80;;
17796;SDS011;55596;53.554;9.916;2023-06-14T14:31:29;7.38;;;2.00;;
17796;SDS011;55596;53.554;9.916;2023-06-14T14:33:56;7.97;;;2.20;;
17796;SDS011;55596;53.554;9.916;2023-06-14T14:36:23;6.18;;;2.08;;
17796;SDS011;55596;53.554;9.916;2023-06-14T14:38:51;8.68;;;2.13;;
17796;SDS011;55596;53.554;9.916;2023-06-14T14:41:18;4.00;;;2.08;;
17796;SDS011;55596;53.554;9.916;2023-06-14T14:43:46;5.68;;;1.80;;
17796;SDS011;55596;53.554;9.916;2023-06-14T14:46:13;10.45;;;2.38;;
17796;SDS011;55596;53.554;9.916;2023-06-14T14:48:43;6.07;;;2.17;;
17796;SDS011;55596;53.554;9.916;2023-06-14T14:51:11;10.10;;;2.30;;
17796;SDS011;55596;53.554;9.916;2023-06-14T14:53:39;3.67;;;1.92;;
17796;SDS011;55596;53.554;9.916;2023-06-14T14:56:07;6.78;;;1.88;;
17796;SDS011;55596;53.554;9.916;2023-06-14T14:58:34;4.95;;;2.05;;
17796;SDS011;55596;53.554;9.916;2023-06-14T15:01:01;6.28;;;2.10;;